sensor_id;sensor_type;location;lat;lon;timestamp;pressure;altitude;pressure_sealevel;temperature;humidity
76201;BME280;64981;52.930;9.266;2024-02-16T00:00:10;100910.13;;;11.03;80.17
76201;BME280;64981;52.930;9.266;2024-02-16T00:02:38;100910.72;;;10.89;80.84
76201;BME280;64981;52.930;9.266;2024-02-16T00:05:05;100913.25;;;10.98;80.42
76201;BME280;64981;52.930;9.266;2024-02-16T00:07:33;100917.22;;;11.02;80.21
76201;BME280;64981;52.930;9.266;2024-02-16T00:09:59;100904.91;;;10.77;81.20
76201;BME280;64981;52.930;9.266;2024-02-16T00:12:24;100904.47;;;10.90;80.56
76201;BME280;64981;52.930;9.266;2024-02-16T00:14:50;100918.13;;;10.85;81.30
76201;BME280;64981;52.930;9.266;2024-02-16T00:17:15;100920.97;;;10.83;81.27
76201;BME280;64981;52.930;9.266;2024-02-16T00:19:42;100912.53;;;10.80;81.39
76201;BME280;64981;52.930;9.266;2024-02-16T00:22:08;100909.19;;;10.78;81.56
76201;BME280;64981;52.930;9.266;2024-02-16T00:24:34;100904.06;;;10.68;82.02
76201;BME280;64981;52.930;9.266;2024-02-16T00:27:02;100885.72;;;10.67;82.07
76201;BME280;64981;52.930;9.266;2024-02-16T00:29:28;100876.94;;;10.58;81.72
76201;BME280;64981;52.930;9.266;2024-02-16T00:31:54;100894.78;;;10.64;82.01
76201;BME280;64981;52.930;9.266;2024-02-16T00:34:20;100896.13;;;10.68;81.71
76201;BME280;64981;52.930;9.266;2024-02-16T00:36:46;100900.38;;;10.61;82.35
76201;BME280;64981;52.930;9.266;2024-02-16T00:39:12;100898.06;;;10.58;82.34
76201;BME280;64981;52.930;9.266;2024-02-16T00:41:37;100899.16;;;10.48;82.98
76201;BME280;64981;52.930;9.266;2024-02-16T00:44:03;100898.31;;;10.47;83.17
76201;BME280;64981;52.930;9.266;2024-02-16T00:46:28;100895.66;;;10.39;83.57
76201;BME280;64981;52.930;9.266;2024-02-16T00:48:54;100895.00;;;10.37;83.79
76201;BME280;64981;52.930;9.266;2024-02-16T00:51:20;100895.34;;;10.42;83.31
76201;BME280;64981;52.930;9.266;2024-02-16T00:53:46;100882.59;;;10.38;83.75
76201;BME280;64981;52.930;9.266;2024-02-16T00:56:12;100887.56;;;10.41;83.54
76201;BME280;64981;52.930;9.266;2024-02-16T00:58:40;100889.72;;;10.37;83.74
76201;BME280;64981;52.930;9.266;2024-02-16T01:01:06;100885.75;;;10.41;83.82
76201;BME280;64981;52.930;9.266;2024-02-16T01:03:36;100890.06;;;10.42;83.63
76201;BME280;64981;52.930;9.266;2024-02-16T01:06:03;100869.34;;;10.29;83.91
76201;BME280;64981;52.930;9.266;2024-02-16T01:08:29;100842.50;;;10.08;84.77
76201;BME280;64981;52.930;9.266;2024-02-16T01:10:55;100876.78;;;10.34;84.40
76201;BME280;64981;52.930;9.266;2024-02-16T01:13:21;100868.72;;;10.36;84.43
76201;BME280;64981;52.930;9.266;2024-02-16T01:15:47;100859.47;;;10.31;84.49
76201;BME280;64981;52.930;9.266;2024-02-16T01:18:12;100865.16;;;10.45;84.27
76201;BME280;64981;52.930;9.266;2024-02-16T01:20:38;100869.75;;;10.43;84.28
76201;BME280;64981;52.930;9.266;2024-02-16T01:23:04;100865.47;;;10.50;84.12
76201;BME280;64981;52.930;9.266;2024-02-16T01:25:31;100862.63;;;10.35;84.88
76201;BME280;64981;52.930;9.266;2024-02-16T01:27:57;100855.81;;;10.58;83.89
76201;BME280;64981;52.930;9.266;2024-02-16T01:30:23;100857.53;;;10.42;84.67
76201;BME280;64981;52.930;9.266;2024-02-16T01:32:48;100858.06;;;10.45;84.35
76201;BME280;64981;52.930;9.266;2024-02-16T01:35:14;100851.28;;;10.43;83.98
76201;BME280;64981;52.930;9.266;2024-02-16T01:37:41;100863.84;;;10.49;84.12
76201;BME280;64981;52.930;9.266;2024-02-16T01:40:08;100854.63;;;10.53;84.01
76201;BME280;64981;52.930;9.266;2024-02-16T01:42:40;100863.88;;;10.57;83.69
76201;BME280;64981;52.930;9.266;2024-02-16T01:45:06;100850.97;;;10.46;84.25
76201;BME280;64981;52.930;9.266;2024-02-16T01:47:32;100855.41;;;10.45;84.17
76201;BME280;64981;52.930;9.266;2024-02-16T01:49:58;100861.53;;;10.46;84.51
76201;BME280;64981;52.930;9.266;2024-02-16T01:52:24;100852.13;;;10.51;83.62
76201;BME280;64981;52.930;9.266;2024-02-16T01:54:49;100865.34;;;10.51;84.04
76201;BME280;64981;52.930;9.266;2024-02-16T01:57:15;100842.72;;;10.49;83.90
76201;BME280;64981;52.930;9.266;2024-02-16T01:59:41;100860.72;;;10.53;84.17
76201;BME280;64981;52.930;9.266;2024-02-16T02:02:06;100855.28;;;10.55;84.01
76201;BME280;64981;52.930;9.266;2024-02-16T02:04:32;100850.00;;;10.55;83.84
76201;BME280;64981;52.930;9.266;2024-02-16T02:06:58;100833.47;;;10.45;84.09
76201;BME280;64981;52.930;9.266;2024-02-16T02:09:24;100844.88;;;10.53;84.07
76201;BME280;64981;52.930;9.266;2024-02-16T02:11:49;100849.81;;;10.48;84.17
76201;BME280;64981;52.930;9.266;2024-02-16T02:14:17;100838.94;;;10.59;83.67
76201;BME280;64981;52.930;9.266;2024-02-16T02:16:42;100846.84;;;10.51;83.81
76201;BME280;64981;52.930;9.266;2024-02-16T02:19:08;100842.09;;;10.55;83.89
76201;BME280;64981;52.930;9.266;2024-02-16T02:21:33;100843.75;;;10.56;83.75
76201;BME280;64981;52.930;9.266;2024-02-16T02:23:59;100831.00;;;10.51;84.00
76201;BME280;64981;52.930;9.266;2024-02-16T02:26:25;100832.34;;;10.55;83.58
76201;BME280;64981;52.930;9.266;2024-02-16T02:28:51;100821.75;;;10.47;83.81
76201;BME280;64981;52.930;9.266;2024-02-16T02:31:16;100821.09;;;10.45;83.85
76201;BME280;64981;52.930;9.266;2024-02-16T02:33:42;100806.91;;;10.46;83.68
76201;BME280;64981;52.930;9.266;2024-02-16T02:36:08;100820.59;;;10.50;83.35
76201;BME280;64981;52.930;9.266;2024-02-16T02:38:33;100741.38;;;10.08;83.39
76201;BME280;64981;52.930;9.266;2024-02-16T02:40:59;100805.75;;;10.57;83.12
76201;BME280;64981;52.930;9.266;2024-02-16T02:43:24;100804.59;;;10.59;82.92
76201;BME280;64981;52.930;9.266;2024-02-16T02:45:50;100798.03;;;10.63;82.60
76201;BME280;64981;52.930;9.266;2024-02-16T02:48:15;100799.16;;;10.53;83.36
76201;BME280;64981;52.930;9.266;2024-02-16T02:50:41;100796.88;;;10.58;82.58
76201;BME280;64981;52.930;9.266;2024-02-16T02:53:07;100787.59;;;10.54;82.88
76201;BME280;64981;52.930;9.266;2024-02-16T02:55:32;100796.16;;;10.48;83.04
76201;BME280;64981;52.930;9.266;2024-02-16T02:57:58;100783.63;;;10.50;82.81
76201;BME280;64981;52.930;9.266;2024-02-16T03:00:23;100786.63;;;10.55;82.35
76201;BME280;64981;52.930;9.266;2024-02-16T03:02:51;100774.72;;;10.51;82.15
76201;BME280;64981;52.930;9.266;2024-02-16T03:05:16;100786.25;;;10.42;82.54
76201;BME280;64981;52.930;9.266;2024-02-16T03:07:44;100776.69;;;10.49;82.53
76201;BME280;64981;52.930;9.266;2024-02-16T03:10:10;100777.72;;;10.56;81.89
76201;BME280;64981;52.930;9.266;2024-02-16T03:12:36;100747.16;;;10.45;81.38
76201;BME280;64981;52.930;9.266;2024-02-16T03:15:01;100774.06;;;10.57;81.64
76201;BME280;64981;52.930;9.266;2024-02-16T03:17:27;100769.16;;;10.62;81.41
76201;BME280;64981;52.930;9.266;2024-02-16T03:19:53;100764.66;;;10.62;81.27
76201;BME280;64981;52.930;9.266;2024-02-16T03:22:18;100762.66;;;10.48;81.91
76201;BME280;64981;52.930;9.266;2024-02-16T03:24:44;100766.00;;;10.58;81.86
76201;BME280;64981;52.930;9.266;2024-02-16T03:27:10;100764.16;;;10.51;81.89
76201;BME280;64981;52.930;9.266;2024-02-16T03:29:36;100756.22;;;10.51;81.48
76201;BME280;64981;52.930;9.266;2024-02-16T03:32:01;100760.91;;;10.81;80.68
76201;BME280;64981;52.930;9.266;2024-02-16T03:34:27;100736.78;;;10.60;80.85
76201;BME280;64981;52.930;9.266;2024-02-16T03:36:53;100747.19;;;10.61;80.73
76201;BME280;64981;52.930;9.266;2024-02-16T03:39:19;100749.78;;;10.45;81.27
76201;BME280;64981;52.930;9.266;2024-02-16T03:41:46;100743.34;;;10.48;81.41
76201;BME280;64981;52.930;9.266;2024-02-16T03:44:14;100756.09;;;10.60;80.77
76201;BME280;64981;52.930;9.266;2024-02-16T03:46:42;100755.94;;;10.62;80.99
76201;BME280;64981;52.930;9.266;2024-02-16T03:49:08;100695.88;;;10.14;81.29
76201;BME280;64981;52.930;9.266;2024-02-16T03:51:34;100758.59;;;10.62;81.07
76201;BME280;64981;52.930;9.266;2024-02-16T03:54:00;100758.72;;;10.52;81.44
76201;BME280;64981;52.930;9.266;2024-02-16T03:56:25;100761.69;;;10.65;81.12
76201;BME280;64981;52.930;9.266;2024-02-16T03:58:51;100751.78;;;10.59;81.11
76201;BME280;64981;52.930;9.266;2024-02-16T04:01:16;100753.44;;;10.60;80.99
76201;BME280;64981;52.930;9.266;2024-02-16T04:03:42;100735.59;;;10.54;80.87
76201;BME280;64981;52.930;9.266;2024-02-16T04:06:08;100746.34;;;10.61;80.75
76201;BME280;64981;52.930;9.266;2024-02-16T04:08:33;100743.72;;;10.69;80.41
76201;BME280;64981;52.930;9.266;2024-02-16T04:10:59;100740.28;;;10.68;80.37
76201;BME280;64981;52.930;9.266;2024-02-16T04:13:24;100744.88;;;10.66;80.49
76201;BME280;64981;52.930;9.266;2024-02-16T04:15:50;100749.16;;;10.59;80.75
76201;BME280;64981;52.930;9.266;2024-02-16T04:18:16;100744.03;;;10.58;80.91
76201;BME280;64981;52.930;9.266;2024-02-16T04:20:41;100745.06;;;10.73;80.07
76201;BME280;64981;52.930;9.266;2024-02-16T04:23:07;100743.38;;;10.64;80.25
76201;BME280;64981;52.930;9.266;2024-02-16T04:25:33;100740.44;;;10.75;79.87
76201;BME280;64981;52.930;9.266;2024-02-16T04:27:59;100741.06;;;10.61;80.09
76201;BME280;64981;52.930;9.266;2024-02-16T04:30:24;100746.50;;;10.59;80.17
76201;BME280;64981;52.930;9.266;2024-02-16T04:32:50;100743.53;;;10.62;80.05
76201;BME280;64981;52.930;9.266;2024-02-16T04:35:15;100743.38;;;10.56;80.29
76201;BME280;64981;52.930;9.266;2024-02-16T04:37:42;100740.75;;;10.56;80.32
76201;BME280;64981;52.930;9.266;2024-02-16T04:40:08;100748.44;;;10.41;81.08
76201;BME280;64981;52.930;9.266;2024-02-16T04:42:34;100750.63;;;10.46;80.99
76201;BME280;64981;52.930;9.266;2024-02-16T04:45:00;100750.44;;;10.39;81.13
76201;BME280;64981;52.930;9.266;2024-02-16T04:47:27;100743.66;;;10.45;80.46
76201;BME280;64981;52.930;9.266;2024-02-16T04:49:52;100763.47;;;10.41;80.90
76201;BME280;64981;52.930;9.266;2024-02-16T04:52:18;100744.31;;;10.30;81.74
76201;BME280;64981;52.930;9.266;2024-02-16T04:54:43;100735.06;;;10.35;80.82
76201;BME280;64981;52.930;9.266;2024-02-16T04:57:09;100750.56;;;10.38;81.15
76201;BME280;64981;52.930;9.266;2024-02-16T04:59:35;100750.88;;;10.26;81.72
76201;BME280;64981;52.930;9.266;2024-02-16T05:02:00;100743.94;;;10.25;81.49
76201;BME280;64981;52.930;9.266;2024-02-16T05:04:26;100740.00;;;10.29;81.13
76201;BME280;64981;52.930;9.266;2024-02-16T05:06:51;100741.69;;;10.39;80.95
76201;BME280;64981;52.930;9.266;2024-02-16T05:09:18;100722.78;;;10.17;81.42
76201;BME280;64981;52.930;9.266;2024-02-16T05:11:44;100728.06;;;10.17;81.52
76201;BME280;64981;52.930;9.266;2024-02-16T05:14:10;100734.38;;;10.24;81.23
76201;BME280;64981;52.930;9.266;2024-02-16T05:16:42;100735.50;;;10.22;81.51
76201;BME280;64981;52.930;9.266;2024-02-16T05:19:07;100730.78;;;10.34;80.73
76201;BME280;64981;52.930;9.266;2024-02-16T05:21:33;100732.88;;;10.22;81.33
76201;BME280;64981;52.930;9.266;2024-02-16T05:23:59;100726.94;;;10.20;81.32
76201;BME280;64981;52.930;9.266;2024-02-16T05:26:25;100743.72;;;10.19;81.31
76201;BME280;64981;52.930;9.266;2024-02-16T05:28:50;100735.28;;;10.07;81.45
76201;BME280;64981;52.930;9.266;2024-02-16T05:31:17;100732.31;;;10.10;81.60
76201;BME280;64981;52.930;9.266;2024-02-16T05:33:45;100734.63;;;10.13;81.55
76201;BME280;64981;52.930;9.266;2024-02-16T05:36:11;100729.66;;;10.10;81.32
76201;BME280;64981;52.930;9.266;2024-02-16T05:38:38;100725.97;;;10.21;80.77
76201;BME280;64981;52.930;9.266;2024-02-16T05:41:08;100725.38;;;10.09;81.00
76201;BME280;64981;52.930;9.266;2024-02-16T05:43:34;100707.66;;;9.94;81.42
76201;BME280;64981;52.930;9.266;2024-02-16T05:46:00;100710.28;;;9.94;81.20
76201;BME280;64981;52.930;9.266;2024-02-16T05:48:26;100722.25;;;10.06;80.99
76201;BME280;64981;52.930;9.266;2024-02-16T05:50:59;100716.78;;;9.99;81.00
76201;BME280;64981;52.930;9.266;2024-02-16T05:53:27;100707.63;;;9.86;81.35
76201;BME280;64981;52.930;9.266;2024-02-16T05:55:53;100721.69;;;9.94;81.64
76201;BME280;64981;52.930;9.266;2024-02-16T05:58:20;100651.78;;;9.56;81.28
76201;BME280;64981;52.930;9.266;2024-02-16T06:00:46;100705.66;;;9.88;81.38
76201;BME280;64981;52.930;9.266;2024-02-16T06:03:13;100718.91;;;9.96;81.22
76201;BME280;64981;52.930;9.266;2024-02-16T06:05:39;100701.59;;;9.93;80.78
76201;BME280;64981;52.930;9.266;2024-02-16T06:08:07;100713.97;;;10.01;80.78
76201;BME280;64981;52.930;9.266;2024-02-16T06:10:33;100728.31;;;9.98;80.91
76201;BME280;64981;52.930;9.266;2024-02-16T06:12:59;100719.91;;;10.03;80.27
76201;BME280;64981;52.930;9.266;2024-02-16T06:15:25;100722.72;;;10.09;80.03
76201;BME280;64981;52.930;9.266;2024-02-16T06:17:50;100726.19;;;10.02;80.31
76201;BME280;64981;52.930;9.266;2024-02-16T06:20:18;100730.44;;;10.03;80.15
76201;BME280;64981;52.930;9.266;2024-02-16T06:22:44;100712.78;;;9.95;80.02
76201;BME280;64981;52.930;9.266;2024-02-16T06:25:10;100712.31;;;10.00;79.89
76201;BME280;64981;52.930;9.266;2024-02-16T06:27:35;100739.41;;;10.10;79.62
76201;BME280;64981;52.930;9.266;2024-02-16T06:30:03;100741.88;;;10.11;79.69
76201;BME280;64981;52.930;9.266;2024-02-16T06:32:29;100743.00;;;10.01;79.68
76201;BME280;64981;52.930;9.266;2024-02-16T06:34:57;100727.00;;;10.02;79.50
76201;BME280;64981;52.930;9.266;2024-02-16T06:37:22;100720.72;;;10.03;79.24
76201;BME280;64981;52.930;9.266;2024-02-16T06:39:48;100722.91;;;10.08;79.24
76201;BME280;64981;52.930;9.266;2024-02-16T06:42:14;100725.69;;;10.06;79.42
76201;BME280;64981;52.930;9.266;2024-02-16T06:44:40;100735.16;;;10.17;78.85
76201;BME280;64981;52.930;9.266;2024-02-16T06:47:06;100734.94;;;10.02;79.04
76201;BME280;64981;52.930;9.266;2024-02-16T06:49:31;100735.13;;;10.09;79.31
76201;BME280;64981;52.930;9.266;2024-02-16T06:51:57;100734.44;;;10.07;79.04
76201;BME280;64981;52.930;9.266;2024-02-16T06:54:22;100735.69;;;10.20;78.65
76201;BME280;64981;52.930;9.266;2024-02-16T06:56:49;100738.66;;;10.25;78.79
76201;BME280;64981;52.930;9.266;2024-02-16T06:59:17;100713.84;;;10.10;78.03
76201;BME280;64981;52.930;9.266;2024-02-16T07:01:43;100741.69;;;10.39;78.01
76201;BME280;64981;52.930;9.266;2024-02-16T07:04:09;100745.63;;;10.35;78.17
76201;BME280;64981;52.930;9.266;2024-02-16T07:06:35;100765.22;;;10.24;78.58
76201;BME280;64981;52.930;9.266;2024-02-16T07:09:01;100762.66;;;10.40;78.02
76201;BME280;64981;52.930;9.266;2024-02-16T07:11:28;100754.19;;;10.28;78.08
76201;BME280;64981;52.930;9.266;2024-02-16T07:13:54;100759.31;;;10.38;78.06
76201;BME280;64981;52.930;9.266;2024-02-16T07:16:20;100749.59;;;10.47;77.75
76201;BME280;64981;52.930;9.266;2024-02-16T07:18:46;100755.72;;;10.39;77.53
76201;BME280;64981;52.930;9.266;2024-02-16T07:21:11;100748.63;;;10.48;77.81
76201;BME280;64981;52.930;9.266;2024-02-16T07:23:37;100740.72;;;10.48;77.71
76201;BME280;64981;52.930;9.266;2024-02-16T07:26:03;100754.41;;;10.51;77.44
76201;BME280;64981;52.930;9.266;2024-02-16T07:28:29;100742.38;;;10.49;77.28
76201;BME280;64981;52.930;9.266;2024-02-16T07:30:55;100747.47;;;10.50;77.39
76201;BME280;64981;52.930;9.266;2024-02-16T07:33:20;100761.41;;;10.68;77.07
76201;BME280;64981;52.930;9.266;2024-02-16T07:35:47;100752.31;;;10.71;76.78
76201;BME280;64981;52.930;9.266;2024-02-16T07:38:12;100756.63;;;10.88;76.02
76201;BME280;64981;52.930;9.266;2024-02-16T07:40:38;100746.22;;;10.95;76.08
76201;BME280;64981;52.930;9.266;2024-02-16T07:43:04;100744.75;;;10.92;75.82
76201;BME280;64981;52.930;9.266;2024-02-16T07:45:30;100748.41;;;10.99;75.81
76201;BME280;64981;52.930;9.266;2024-02-16T07:47:56;100749.88;;;11.18;75.05
76201;BME280;64981;52.930;9.266;2024-02-16T07:50:22;100737.78;;;11.31;74.81
76201;BME280;64981;52.930;9.266;2024-02-16T07:52:49;100737.81;;;11.23;74.54
76201;BME280;64981;52.930;9.266;2024-02-16T07:55:15;100735.97;;;11.48;73.12
76201;BME280;64981;52.930;9.266;2024-02-16T07:57:44;100748.03;;;11.67;72.65
76201;BME280;64981;52.930;9.266;2024-02-16T08:00:10;100762.59;;;11.71;72.86
76201;BME280;64981;52.930;9.266;2024-02-16T08:02:36;100765.53;;;11.76;73.06
76201;BME280;64981;52.930;9.266;2024-02-16T08:05:02;100757.84;;;11.97;71.88
76201;BME280;64981;52.930;9.266;2024-02-16T08:07:28;100762.56;;;12.26;70.96
76201;BME280;64981;52.930;9.266;2024-02-16T08:09:54;100754.59;;;12.26;70.50
76201;BME280;64981;52.930;9.266;2024-02-16T08:12:19;100755.09;;;12.29;70.94
76201;BME280;64981;52.930;9.266;2024-02-16T08:14:46;100766.75;;;12.12;70.44
76201;BME280;64981;52.930;9.266;2024-02-16T08:17:12;100759.25;;;12.24;70.34
76201;BME280;64981;52.930;9.266;2024-02-16T08:19:38;100758.72;;;12.28;70.03
76201;BME280;64981;52.930;9.266;2024-02-16T08:22:06;100757.41;;;12.32;69.97
76201;BME280;64981;52.930;9.266;2024-02-16T08:24:33;100762.50;;;11.95;71.02
76201;BME280;64981;52.930;9.266;2024-02-16T08:26:59;100761.25;;;12.22;69.93
76201;BME280;64981;52.930;9.266;2024-02-16T08:29:24;100770.09;;;12.06;71.03
76201;BME280;64981;52.930;9.266;2024-02-16T08:31:51;100766.22;;;12.25;70.16
76201;BME280;64981;52.930;9.266;2024-02-16T08:34:18;100756.31;;;12.19;70.00
76201;BME280;64981;52.930;9.266;2024-02-16T08:36:46;100756.34;;;12.11;70.35
76201;BME280;64981;52.930;9.266;2024-02-16T08:39:13;100753.88;;;12.09;70.77
76201;BME280;64981;52.930;9.266;2024-02-16T08:41:39;100750.44;;;11.93;71.23
76201;BME280;64981;52.930;9.266;2024-02-16T08:44:06;100754.88;;;12.00;70.77
76201;BME280;64981;52.930;9.266;2024-02-16T08:46:35;100755.69;;;12.01;71.13
76201;BME280;64981;52.930;9.266;2024-02-16T08:49:02;100764.47;;;12.09;71.24
76201;BME280;64981;52.930;9.266;2024-02-16T08:51:28;100754.38;;;12.05;71.28
76201;BME280;64981;52.930;9.266;2024-02-16T08:53:54;100755.72;;;12.31;70.54
76201;BME280;64981;52.930;9.266;2024-02-16T08:56:20;100757.88;;;12.36;70.05
76201;BME280;64981;52.930;9.266;2024-02-16T08:58:46;100762.25;;;12.21;70.63
76201;BME280;64981;52.930;9.266;2024-02-16T09:01:11;100757.03;;;12.43;69.89
76201;BME280;64981;52.930;9.266;2024-02-16T09:03:37;100756.31;;;12.50;69.85
76201;BME280;64981;52.930;9.266;2024-02-16T09:06:04;100739.75;;;12.48;69.27
76201;BME280;64981;52.930;9.266;2024-02-16T09:08:30;100755.41;;;12.65;68.94
76201;BME280;64981;52.930;9.266;2024-02-16T09:10:59;100752.53;;;12.44;70.36
76201;BME280;64981;52.930;9.266;2024-02-16T09:13:25;100752.66;;;12.81;68.72
76201;BME280;64981;52.930;9.266;2024-02-16T09:15:50;100745.31;;;12.61;69.76
76201;BME280;64981;52.930;9.266;2024-02-16T09:18:17;100760.13;;;12.78;69.44
76201;BME280;64981;52.930;9.266;2024-02-16T09:20:43;100756.53;;;12.71;69.11
76201;BME280;64981;52.930;9.266;2024-02-16T09:23:08;100761.13;;;12.77;69.36
76201;BME280;64981;52.930;9.266;2024-02-16T09:25:35;100756.94;;;12.90;68.61
76201;BME280;64981;52.930;9.266;2024-02-16T09:28:01;100746.59;;;12.95;69.08
76201;BME280;64981;52.930;9.266;2024-02-16T09:30:26;100749.03;;;13.05;68.58
76201;BME280;64981;52.930;9.266;2024-02-16T09:32:53;100741.66;;;12.92;68.52
76201;BME280;64981;52.930;9.266;2024-02-16T09:35:19;100763.16;;;13.20;68.16
76201;BME280;64981;52.930;9.266;2024-02-16T09:37:44;100771.31;;;13.19;68.29
76201;BME280;64981;52.930;9.266;2024-02-16T09:40:12;100770.63;;;12.94;68.93
76201;BME280;64981;52.930;9.266;2024-02-16T09:42:38;100772.78;;;13.36;68.29
76201;BME280;64981;52.930;9.266;2024-02-16T09:45:06;100779.69;;;13.45;68.02
76201;BME280;64981;52.930;9.266;2024-02-16T09:47:33;100780.16;;;13.48;67.84
76201;BME280;64981;52.930;9.266;2024-02-16T09:50:01;100785.88;;;13.75;67.50
76201;BME280;64981;52.930;9.266;2024-02-16T09:52:27;100779.50;;;13.46;67.96
76201;BME280;64981;52.930;9.266;2024-02-16T09:54:52;100785.31;;;13.65;67.28
76201;BME280;64981;52.930;9.266;2024-02-16T09:57:18;100789.44;;;13.82;66.51
76201;BME280;64981;52.930;9.266;2024-02-16T09:59:44;100778.66;;;13.98;66.13
76201;BME280;64981;52.930;9.266;2024-02-16T10:02:11;100777.81;;;13.83;66.64
76201;BME280;64981;52.930;9.266;2024-02-16T10:04:36;100780.56;;;13.75;66.46
76201;BME280;64981;52.930;9.266;2024-02-16T10:07:02;100785.16;;;13.81;67.17
76201;BME280;64981;52.930;9.266;2024-02-16T10:09:28;100787.34;;;13.92;66.57
76201;BME280;64981;52.930;9.266;2024-02-16T10:11:55;100792.03;;;14.04;66.33
76201;BME280;64981;52.930;9.266;2024-02-16T10:14:20;100801.28;;;13.94;66.27
76201;BME280;64981;52.930;9.266;2024-02-16T10:16:47;100799.28;;;14.11;66.04
76201;BME280;64981;52.930;9.266;2024-02-16T10:19:13;100788.84;;;14.09;65.75
76201;BME280;64981;52.930;9.266;2024-02-16T10:21:40;100803.97;;;14.09;66.20
76201;BME280;64981;52.930;9.266;2024-02-16T10:24:07;100810.00;;;14.17;66.00
76201;BME280;64981;52.930;9.266;2024-02-16T10:26:34;100803.31;;;14.21;65.84
76201;BME280;64981;52.930;9.266;2024-02-16T10:29:10;100804.97;;;14.22;66.16
76201;BME280;64981;52.930;9.266;2024-02-16T10:31:37;100815.22;;;14.11;66.43
76201;BME280;64981;52.930;9.266;2024-02-16T10:34:04;100810.28;;;14.22;65.88
76201;BME280;64981;52.930;9.266;2024-02-16T10:36:34;100812.75;;;14.09;66.49
76201;BME280;64981;52.930;9.266;2024-02-16T10:39:01;100820.81;;;14.16;66.17
76201;BME280;64981;52.930;9.266;2024-02-16T10:41:34;100821.66;;;14.16;66.25
76201;BME280;64981;52.930;9.266;2024-02-16T10:44:01;100818.25;;;14.22;66.09
76201;BME280;64981;52.930;9.266;2024-02-16T10:46:28;100823.34;;;14.38;65.76
76201;BME280;64981;52.930;9.266;2024-02-16T10:48:53;100819.44;;;14.34;66.04
76201;BME280;64981;52.930;9.266;2024-02-16T10:51:28;100807.59;;;14.37;65.59
76201;BME280;64981;52.930;9.266;2024-02-16T10:53:59;100819.38;;;14.64;65.27
76201;BME280;64981;52.930;9.266;2024-02-16T10:56:34;100819.28;;;14.57;65.44
76201;BME280;64981;52.930;9.266;2024-02-16T10:59:04;100812.03;;;15.01;64.20
76201;BME280;64981;52.930;9.266;2024-02-16T11:01:32;100817.91;;;15.12;63.83
76201;BME280;64981;52.930;9.266;2024-02-16T11:04:03;100818.34;;;15.15;63.02
76201;BME280;64981;52.930;9.266;2024-02-16T11:06:29;100814.63;;;15.31;63.19
76201;BME280;64981;52.930;9.266;2024-02-16T11:09:01;100810.81;;;15.40;62.42
76201;BME280;64981;52.930;9.266;2024-02-16T11:11:32;100802.44;;;15.43;62.92
76201;BME280;64981;52.930;9.266;2024-02-16T11:13:59;100814.75;;;15.72;62.17
76201;BME280;64981;52.930;9.266;2024-02-16T11:16:25;100810.31;;;16.06;61.57
76201;BME280;64981;52.930;9.266;2024-02-16T11:18:51;100808.66;;;16.05;61.25
76201;BME280;64981;52.930;9.266;2024-02-16T11:21:17;100804.81;;;16.14;60.68
76201;BME280;64981;52.930;9.266;2024-02-16T11:23:44;100792.72;;;16.12;60.75
76201;BME280;64981;52.930;9.266;2024-02-16T11:26:12;100785.13;;;16.15;60.31
76201;BME280;64981;52.930;9.266;2024-02-16T11:28:40;100807.31;;;16.23;61.14
76201;BME280;64981;52.930;9.266;2024-02-16T11:31:06;100816.63;;;16.40;60.42
76201;BME280;64981;52.930;9.266;2024-02-16T11:33:34;100801.44;;;16.34;60.18
76201;BME280;64981;52.930;9.266;2024-02-16T11:36:01;100807.38;;;16.36;59.94
76201;BME280;64981;52.930;9.266;2024-02-16T11:38:31;100811.38;;;16.59;59.44
76201;BME280;64981;52.930;9.266;2024-02-16T11:41:01;100805.19;;;16.52;59.93
76201;BME280;64981;52.930;9.266;2024-02-16T11:43:27;100811.78;;;16.56;59.98
76201;BME280;64981;52.930;9.266;2024-02-16T11:45:53;100816.72;;;16.59;59.59
76201;BME280;64981;52.930;9.266;2024-02-16T11:48:21;100818.31;;;16.47;59.95
76201;BME280;64981;52.930;9.266;2024-02-16T11:50:49;100824.59;;;16.33;60.56
76201;BME280;64981;52.930;9.266;2024-02-16T11:53:23;100825.28;;;16.14;61.24
76201;BME280;64981;52.930;9.266;2024-02-16T11:55:49;100812.03;;;15.93;62.06
76201;BME280;64981;52.930;9.266;2024-02-16T11:58:16;100820.06;;;15.99;62.00
76201;BME280;64981;52.930;9.266;2024-02-16T12:00:45;100831.47;;;16.14;61.96
76201;BME280;64981;52.930;9.266;2024-02-16T12:03:11;100827.91;;;16.07;62.55
76201;BME280;64981;52.930;9.266;2024-02-16T12:05:37;100830.66;;;16.21;62.35
76201;BME280;64981;52.930;9.266;2024-02-16T12:08:06;100830.00;;;16.12;62.31
76201;BME280;64981;52.930;9.266;2024-02-16T12:10:31;100815.31;;;15.95;62.73
76201;BME280;64981;52.930;9.266;2024-02-16T12:12:58;100822.44;;;15.88;63.08
76201;BME280;64981;52.930;9.266;2024-02-16T12:15:24;100817.84;;;16.03;62.62
76201;BME280;64981;52.930;9.266;2024-02-16T12:18:00;100828.22;;;16.19;62.62
76201;BME280;64981;52.930;9.266;2024-02-16T12:20:26;100836.28;;;16.04;62.14
76201;BME280;64981;52.930;9.266;2024-02-16T12:22:52;100844.72;;;15.80;63.37
76201;BME280;64981;52.930;9.266;2024-02-16T12:25:17;100845.78;;;15.86;63.22
76201;BME280;64981;52.930;9.266;2024-02-16T12:27:43;100846.88;;;15.70;63.88
76201;BME280;64981;52.930;9.266;2024-02-16T12:30:09;100857.09;;;15.88;63.38
76201;BME280;64981;52.930;9.266;2024-02-16T12:32:35;100844.28;;;15.77;63.72
76201;BME280;64981;52.930;9.266;2024-02-16T12:35:00;100827.22;;;15.22;64.78
76201;BME280;64981;52.930;9.266;2024-02-16T12:37:26;100854.22;;;15.40;64.86
76201;BME280;64981;52.930;9.266;2024-02-16T12:39:52;100841.72;;;15.20;65.64
76201;BME280;64981;52.930;9.266;2024-02-16T12:42:18;100859.03;;;15.30;65.44
76201;BME280;64981;52.930;9.266;2024-02-16T12:44:43;100851.56;;;15.19;66.37